sensor_id;sensor_type;location;lat;lon;timestamp;temperature;humidity
15705;DHT22;7952;48.396;12.806;2024-03-23T00:51:34;15.00;51.50
15705;DHT22;7952;48.396;12.806;2024-03-23T00:58:27;15.00;51.50
15705;DHT22;7952;48.396;12.806;2024-03-23T01:06:34;14.80;51.40
15705;DHT22;7952;48.396;12.806;2024-03-23T01:12:25;14.70;51.50
15705;DHT22;7952;48.396;12.806;2024-03-23T01:18:25;14.60;51.90
15705;DHT22;7952;48.396;12.806;2024-03-23T01:23:39;14.50;51.70
15705;DHT22;7952;48.396;12.806;2024-03-23T01:26:17;14.40;51.60
15705;DHT22;7952;48.396;12.806;2024-03-23T01:43:15;14.10;51.90
15705;DHT22;7952;48.396;12.806;2024-03-23T01:46:14;14.00;51.90
15705;DHT22;7952;48.396;12.806;2024-03-23T02:02:51;13.70;52.10
15705;DHT22;7952;48.396;12.806;2024-03-23T02:08:59;13.60;52.10
15705;DHT22;7952;48.396;12.806;2024-03-23T02:12:29;13.60;52.20
15705;DHT22;7952;48.396;12.806;2024-03-23T02:14:51;13.60;52.10
15705;DHT22;7952;48.396;12.806;2024-03-23T02:17:46;13.50;52.10
15705;DHT22;7952;48.396;12.806;2024-03-23T02:20:18;13.50;52.10
15705;DHT22;7952;48.396;12.806;2024-03-23T02:26:52;13.40;52.10
15705;DHT22;7952;48.396;12.806;2024-03-23T02:29:18;13.40;52.10
15705;DHT22;7952;48.396;12.806;2024-03-23T02:32:04;13.30;52.00
15705;DHT22;7952;48.396;12.806;2024-03-23T02:35:21;13.30;52.10
15705;DHT22;7952;48.396;12.806;2024-03-23T02:45:35;13.20;52.20
15705;DHT22;7952;48.396;12.806;2024-03-23T02:48:05;13.20;52.20
15705;DHT22;7952;48.396;12.806;2024-03-23T02:50:51;13.20;52.30
15705;DHT22;7952;48.396;12.806;2024-03-23T02:53:23;13.10;52.20
15705;DHT22;7952;48.396;12.806;2024-03-23T02:55:49;13.10;52.20
15705;DHT22;7952;48.396;12.806;2024-03-23T02:58:17;13.20;52.30
15705;DHT22;7952;48.396;12.806;2024-03-23T03:00:46;13.10;52.20
15705;DHT22;7952;48.396;12.806;2024-03-23T03:03:12;13.20;52.30
15705;DHT22;7952;48.396;12.806;2024-03-23T03:05:38;13.20;52.30
15705;DHT22;7952;48.396;12.806;2024-03-23T03:08:11;13.20;52.20
15705;DHT22;7952;48.396;12.806;2024-03-23T03:10:43;13.20;52.20
15705;DHT22;7952;48.396;12.806;2024-03-23T03:13:42;13.20;52.20
15705;DHT22;7952;48.396;12.806;2024-03-23T03:16:20;13.20;52.10
15705;DHT22;7952;48.396;12.806;2024-03-23T03:19:15;13.20;52.10
15705;DHT22;7952;48.396;12.806;2024-03-23T03:21:50;13.20;52.10
15705;DHT22;7952;48.396;12.806;2024-03-23T03:24:21;13.20;52.10
15705;DHT22;7952;48.396;12.806;2024-03-23T03:26:57;13.20;52.00
15705;DHT22;7952;48.396;12.806;2024-03-23T03:29:57;13.20;52.00
15705;DHT22;7952;48.396;12.806;2024-03-23T03:39:21;13.20;52.10
15705;DHT22;7952;48.396;12.806;2024-03-23T03:41:48;13.20;52.20
15705;DHT22;7952;48.396;12.806;2024-03-23T03:44:56;13.20;52.10
15705;DHT22;7952;48.396;12.806;2024-03-23T03:47:27;13.10;52.10
15705;DHT22;7952;48.396;12.806;2024-03-23T03:50:07;13.10;52.10
15705;DHT22;7952;48.396;12.806;2024-03-23T03:52:52;13.10;52.10
15705;DHT22;7952;48.396;12.806;2024-03-23T03:55:24;13.10;52.00
15705;DHT22;7952;48.396;12.806;2024-03-23T03:57:50;13.10;52.60
15705;DHT22;7952;48.396;12.806;2024-03-23T04:00:16;13.10;52.00
15705;DHT22;7952;48.396;12.806;2024-03-23T04:02:42;13.10;52.00
15705;DHT22;7952;48.396;12.806;2024-03-23T04:05:47;13.10;52.00
15705;DHT22;7952;48.396;12.806;2024-03-23T04:08:15;13.10;52.00
15705;DHT22;7952;48.396;12.806;2024-03-23T04:10:41;13.10;52.40
15705;DHT22;7952;48.396;12.806;2024-03-23T04:13:13;13.00;52.00
15705;DHT22;7952;48.396;12.806;2024-03-23T04:15:42;13.00;52.00
15705;DHT22;7952;48.396;12.806;2024-03-23T04:18:25;13.00;52.00
15705;DHT22;7952;48.396;12.806;2024-03-23T04:20:51;13.00;52.00
15705;DHT22;7952;48.396;12.806;2024-03-23T04:23:26;13.00;52.00
15705;DHT22;7952;48.396;12.806;2024-03-23T04:26:02;13.00;52.00
15705;DHT22;7952;48.396;12.806;2024-03-23T04:28:29;13.00;52.00
15705;DHT22;7952;48.396;12.806;2024-03-23T04:30:58;13.00;52.00
15705;DHT22;7952;48.396;12.806;2024-03-23T04:33:24;12.90;52.00
15705;DHT22;7952;48.396;12.806;2024-03-23T04:35:56;13.00;52.10
15705;DHT22;7952;48.396;12.806;2024-03-23T04:38:33;13.00;52.10
15705;DHT22;7952;48.396;12.806;2024-03-23T04:41:02;13.00;52.10
15705;DHT22;7952;48.396;12.806;2024-03-23T04:43:28;13.00;52.00
15705;DHT22;7952;48.396;12.806;2024-03-23T04:45:57;13.00;52.00
15705;DHT22;7952;48.396;12.806;2024-03-23T04:48:26;13.10;52.10
15705;DHT22;7952;48.396;12.806;2024-03-23T04:50:58;13.00;52.00
15705;DHT22;7952;48.396;12.806;2024-03-23T04:53:24;13.00;52.00
15705;DHT22;7952;48.396;12.806;2024-03-23T04:55:55;13.00;51.90
15705;DHT22;7952;48.396;12.806;2024-03-23T04:58:22;13.00;52.00
15705;DHT22;7952;48.396;12.806;2024-03-23T05:00:52;13.00;52.00
15705;DHT22;7952;48.396;12.806;2024-03-23T05:03:26;13.00;51.90
15705;DHT22;7952;48.396;12.806;2024-03-23T05:05:52;13.00;51.90
15705;DHT22;7952;48.396;12.806;2024-03-23T05:08:21;13.00;51.90
15705;DHT22;7952;48.396;12.806;2024-03-23T05:10:53;13.00;51.90
15705;DHT22;7952;48.396;12.806;2024-03-23T05:14:14;13.10;52.00
15705;DHT22;7952;48.396;12.806;2024-03-23T05:16:36;13.10;51.90
15705;DHT22;7952;48.396;12.806;2024-03-23T05:19:02;13.10;51.90
15705;DHT22;7952;48.396;12.806;2024-03-23T05:24:44;13.10;51.90
15705;DHT22;7952;48.396;12.806;2024-03-23T05:27:22;13.10;51.90
15705;DHT22;7952;48.396;12.806;2024-03-23T05:30:14;13.20;51.90
15705;DHT22;7952;48.396;12.806;2024-03-23T05:32:49;13.30;52.00
15705;DHT22;7952;48.396;12.806;2024-03-23T05:36:41;13.50;52.30
15705;DHT22;7952;48.396;12.806;2024-03-23T05:39:12;13.90;52.70
15705;DHT22;7952;48.396;12.806;2024-03-23T05:41:51;14.30;52.40
15705;DHT22;7952;48.396;12.806;2024-03-23T05:44:17;14.80;52.20
15705;DHT22;7952;48.396;12.806;2024-03-23T05:47:06;15.20;52.00
15705;DHT22;7952;48.396;12.806;2024-03-23T05:49:51;15.60;51.70
15705;DHT22;7952;48.396;12.806;2024-03-23T05:52:32;16.00;51.50
15705;DHT22;7952;48.396;12.806;2024-03-23T05:54:58;16.40;51.30
15705;DHT22;7952;48.396;12.806;2024-03-23T05:57:28;16.80;51.20
15705;DHT22;7952;48.396;12.806;2024-03-23T06:00:01;17.10;51.00
15705;DHT22;7952;48.396;12.806;2024-03-23T06:06:42;18.00;50.70
15705;DHT22;7952;48.396;12.806;2024-03-23T06:13:05;19.10;50.60
15705;DHT22;7952;48.396;12.806;2024-03-23T06:19:39;20.20;50.30
15705;DHT22;7952;48.396;12.806;2024-03-23T06:22:23;20.80;50.10
15705;DHT22;7952;48.396;12.806;2024-03-23T06:32:07;22.00;49.70
15705;DHT22;7952;48.396;12.806;2024-03-23T06:35:14;22.40;49.50
15705;DHT22;7952;48.396;12.806;2024-03-23T06:37:40;22.80;49.30
15705;DHT22;7952;48.396;12.806;2024-03-23T06:40:07;23.00;49.00
15705;DHT22;7952;48.396;12.806;2024-03-23T06:42:36;23.00;48.50
15705;DHT22;7952;48.396;12.806;2024-03-23T06:45:03;23.00;48.50
15705;DHT22;7952;48.396;12.806;2024-03-23T06:48:13;22.90;48.10
15705;DHT22;7952;48.396;12.806;2024-03-23T06:53:30;22.60;48.40
15705;DHT22;7952;48.396;12.806;2024-03-23T06:55:59;22.30;48.30
15705;DHT22;7952;48.396;12.806;2024-03-23T06:58:26;22.30;48.80
15705;DHT22;7952;48.396;12.806;2024-03-23T07:00:52;22.30;48.90
15705;DHT22;7952;48.396;12.806;2024-03-23T07:03:21;22.50;48.90
15705;DHT22;7952;48.396;12.806;2024-03-23T07:05:48;22.70;48.90
15705;DHT22;7952;48.396;12.806;2024-03-23T07:08:14;23.00;48.90
15705;DHT22;7952;48.396;12.806;2024-03-23T07:10:47;23.30;48.80
15705;DHT22;7952;48.396;12.806;2024-03-23T07:13:13;23.50;48.50
15705;DHT22;7952;48.396;12.806;2024-03-23T07:15:39;23.80;48.50
15705;DHT22;7952;48.396;12.806;2024-03-23T07:18:05;24.10;48.60
15705;DHT22;7952;48.396;12.806;2024-03-23T07:20:31;24.40;48.40
15705;DHT22;7952;48.396;12.806;2024-03-23T07:23:00;24.70;49.00
15705;DHT22;7952;48.396;12.806;2024-03-23T07:25:35;25.00;48.40
15705;DHT22;7952;48.396;12.806;2024-03-23T07:28:18;25.30;48.30
15705;DHT22;7952;48.396;12.806;2024-03-23T07:40:42;26.90;47.40
15705;DHT22;7952;48.396;12.806;2024-03-23T07:47:04;27.50;47.10
15705;DHT22;7952;48.396;12.806;2024-03-23T07:49:49;27.80;46.20
15705;DHT22;7952;48.396;12.806;2024-03-23T07:52:20;28.00;46.50
15705;DHT22;7952;48.396;12.806;2024-03-23T07:54:50;28.20;46.30
15705;DHT22;7952;48.396;12.806;2024-03-23T07:57:19;28.30;46.10
15705;DHT22;7952;48.396;12.806;2024-03-23T08:00:28;28.30;45.90
15705;DHT22;7952;48.396;12.806;2024-03-23T08:03:07;28.40;45.70
15705;DHT22;7952;48.396;12.806;2024-03-23T08:05:33;28.50;45.60
15705;DHT22;7952;48.396;12.806;2024-03-23T08:08:03;28.60;45.60
15705;DHT22;7952;48.396;12.806;2024-03-23T08:13:48;28.90;45.50
15705;DHT22;7952;48.396;12.806;2024-03-23T08:16:17;29.10;45.40
15705;DHT22;7952;48.396;12.806;2024-03-23T08:18:43;29.10;44.90
15705;DHT22;7952;48.396;12.806;2024-03-23T08:21:12;28.90;44.40
15705;DHT22;7952;48.396;12.806;2024-03-23T08:24:09;28.60;44.50
15705;DHT22;7952;48.396;12.806;2024-03-23T08:29:57;27.70;44.30
15705;DHT22;7952;48.396;12.806;2024-03-23T08:32:24;27.00;44.50
15705;DHT22;7952;48.396;12.806;2024-03-23T08:34:53;26.40;44.70
15705;DHT22;7952;48.396;12.806;2024-03-23T08:37:25;25.70;45.10
15705;DHT22;7952;48.396;12.806;2024-03-23T08:39:54;25.00;45.40
15705;DHT22;7952;48.396;12.806;2024-03-23T08:42:20;24.40;45.70
15705;DHT22;7952;48.396;12.806;2024-03-23T08:44:47;23.70;45.80
15705;DHT22;7952;48.396;12.806;2024-03-23T08:47:15;23.10;46.00
15705;DHT22;7952;48.396;12.806;2024-03-23T08:52:17;21.50;45.90
15705;DHT22;7952;48.396;12.806;2024-03-23T08:54:43;21.50;46.50
15705;DHT22;7952;48.396;12.806;2024-03-23T09:00:37;20.50;46.80
15705;DHT22;7952;48.396;12.806;2024-03-23T09:03:51;19.90;47.10
15705;DHT22;7952;48.396;12.806;2024-03-23T09:06:56;19.30;47.40
15705;DHT22;7952;48.396;12.806;2024-03-23T09:13:07;18.20;48.00
15705;DHT22;7952;48.396;12.806;2024-03-23T09:16:35;17.70;48.30
15705;DHT22;7952;48.396;12.806;2024-03-23T09:23:52;16.90;48.70
15705;DHT22;7952;48.396;12.806;2024-03-23T09:30:28;16.10;49.20
15705;DHT22;7952;48.396;12.806;2024-03-23T09:32:55;15.80;49.40
15705;DHT22;7952;48.396;12.806;2024-03-23T09:38:50;15.40;49.60
15705;DHT22;7952;48.396;12.806;2024-03-23T09:41:16;15.20;49.70
15705;DHT22;7952;48.396;12.806;2024-03-23T09:43:54;15.00;49.70
15705;DHT22;7952;48.396;12.806;2024-03-23T09:46:24;14.90;49.90
15705;DHT22;7952;48.396;12.806;2024-03-23T09:48:56;14.70;49.90
15705;DHT22;7952;48.396;12.806;2024-03-23T09:51:25;14.60;49.90
15705;DHT22;7952;48.396;12.806;2024-03-23T09:53:57;14.50;50.00
15705;DHT22;7952;48.396;12.806;2024-03-23T09:56:23;14.40;50.00
15705;DHT22;7952;48.396;12.806;2024-03-23T09:58:49;14.30;50.00
15705;DHT22;7952;48.396;12.806;2024-03-23T10:05:02;14.10;50.10
15705;DHT22;7952;48.396;12.806;2024-03-23T10:12:02;13.90;50.20
15705;DHT22;7952;48.396;12.806;2024-03-23T10:22:23;13.60;50.30
15705;DHT22;7952;48.396;12.806;2024-03-23T10:25:13;13.50;50.40
15705;DHT22;7952;48.396;12.806;2024-03-23T10:28:24;13.50;50.50
15705;DHT22;7952;48.396;12.806;2024-03-23T10:30:43;13.40;50.40
15705;DHT22;7952;48.396;12.806;2024-03-23T10:33:19;13.40;50.50
15705;DHT22;7952;48.396;12.806;2024-03-23T10:36:39;13.40;50.50
15705;DHT22;7952;48.396;12.806;2024-03-23T10:39:01;13.40;50.50
15705;DHT22;7952;48.396;12.806;2024-03-23T10:41:34;13.40;50.50
15705;DHT22;7952;48.396;12.806;2024-03-23T10:44:22;13.40;50.50
15705;DHT22;7952;48.396;12.806;2024-03-23T10:47:34;13.40;50.40
15705;DHT22;7952;48.396;12.806;2024-03-23T10:51:18;13.40;50.40
15705;DHT22;7952;48.396;12.806;2024-03-23T10:54:15;13.40;50.50
15705;DHT22;7952;48.396;12.806;2024-03-23T10:57:52;13.40;50.50
15705;DHT22;7952;48.396;12.806;2024-03-23T11:00:53;13.50;50.50
15705;DHT22;7952;48.396;12.806;2024-03-23T11:10:35;13.70;50.60
15705;DHT22;7952;48.396;12.806;2024-03-23T11:13:34;13.80;50.50
15705;DHT22;7952;48.396;12.806;2024-03-23T11:20:04;13.90;50.50
15705;DHT22;7952;48.396;12.806;2024-03-23T11:26:43;14.00;50.40
15705;DHT22;7952;48.396;12.806;2024-03-23T11:33:35;14.00;50.40
15705;DHT22;7952;48.396;12.806;2024-03-23T11:37:06;13.90;50.40
15705;DHT22;7952;48.396;12.806;2024-03-23T11:40:34;13.90;50.50
15705;DHT22;7952;48.396;12.806;2024-03-23T11:42:58;13.80;50.90
15705;DHT22;7952;48.396;12.806;2024-03-23T11:45:27;13.90;50.60
15705;DHT22;7952;48.396;12.806;2024-03-23T11:48:13;13.80;50.50
15705;DHT22;7952;48.396;12.806;2024-03-23T11:50:48;13.80;50.50
15705;DHT22;7952;48.396;12.806;2024-03-23T11:54:07;13.90;50.70
15705;DHT22;7952;48.396;12.806;2024-03-23T12:01:11;13.90;50.70
15705;DHT22;7952;48.396;12.806;2024-03-23T12:14:18;14.10;50.60
15705;DHT22;7952;48.396;12.806;2024-03-23T12:16:47;14.00;50.50
15705;DHT22;7952;48.396;12.806;2024-03-23T12:19:16;14.00;50.50
15705;DHT22;7952;48.396;12.806;2024-03-23T12:21:45;14.00;50.50
15705;DHT22;7952;48.396;12.806;2024-03-23T12:24:43;14.00;50.60
15705;DHT22;7952;48.396;12.806;2024-03-23T12:37:39;13.80;50.50
15705;DHT22;7952;48.396;12.806;2024-03-23T12:41:01;13.80;50.60
15705;DHT22;7952;48.396;12.806;2024-03-23T12:44:05;13.80;50.50
15705;DHT22;7952;48.396;12.806;2024-03-23T12:50:55;13.70;50.40
15705;DHT22;7952;48.396;12.806;2024-03-23T12:53:58;13.60;50.30
15705;DHT22;7952;48.396;12.806;2024-03-23T12:57:31;13.60;50.40
15705;DHT22;7952;48.396;12.806;2024-03-23T13:07:50;13.30;50.20
15705;DHT22;7952;48.396;12.806;2024-03-23T13:11:07;13.30;50.20
15705;DHT22;7952;48.396;12.806;2024-03-23T13:13:57;13.20;50.20
15705;DHT22;7952;48.396;12.806;2024-03-23T13:16:26;13.20;50.20
15705;DHT22;7952;48.396;12.806;2024-03-23T13:18:52;13.20;50.20
15705;DHT22;7952;48.396;12.806;2024-03-23T13:21:21;13.20;50.40
15705;DHT22;7952;48.396;12.806;2024-03-23T13:23:47;13.20;50.30
15705;DHT22;7952;48.396;12.806;2024-03-23T13:26:14;13.20;50.30
15705;DHT22;7952;48.396;12.806;2024-03-23T13:28:40;13.20;50.20
15705;DHT22;7952;48.396;12.806;2024-03-23T13:31:20;13.20;50.20
15705;DHT22;7952;48.396;12.806;2024-03-23T13:34:13;13.20;50.20
15705;DHT22;7952;48.396;12.806;2024-03-23T13:36:48;13.30;50.20
15705;DHT22;7952;48.396;12.806;2024-03-23T13:39:41;13.30;50.10
15705;DHT22;7952;48.396;12.806;2024-03-23T13:45:41;13.30;50.00
15705;DHT22;7952;48.396;12.806;2024-03-23T13:48:48;13.30;50.00
15705;DHT22;7952;48.396;12.806;2024-03-23T13:51:33;13.30;50.00
15705;DHT22;7952;48.396;12.806;2024-03-23T13:54:36;13.30;50.00
15705;DHT22;7952;48.396;12.806;2024-03-23T14:00:37;13.30;50.00
15705;DHT22;7952;48.396;12.806;2024-03-23T14:03:38;13.40;50.00
15705;DHT22;7952;48.396;12.806;2024-03-23T14:06:13;13.40;50.00
15705;DHT22;7952;48.396;12.806;2024-03-23T14:12:23;13.40;49.90
15705;DHT22;7952;48.396;12.806;2024-03-23T14:16:20;13.50;50.00
15705;DHT22;7952;48.396;12.806;2024-03-23T14:29:46;13.50;49.80
15705;DHT22;7952;48.396;12.806;2024-03-23T14:33:33;13.50;49.90
15705;DHT22;7952;48.396;12.806;2024-03-23T14:35:56;13.40;49.80
15705;DHT22;7952;48.396;12.806;2024-03-23T14:38:36;13.40;49.80
15705;DHT22;7952;48.396;12.806;2024-03-23T14:41:34;13.40;49.90
15705;DHT22;7952;48.396;12.806;2024-03-23T14:44:27;13.30;49.80
15705;DHT22;7952;48.396;12.806;2024-03-23T14:47:46;13.30;49.70
15705;DHT22;7952;48.396;12.806;2024-03-23T14:50:16;13.30;49.70
15705;DHT22;7952;48.396;12.806;2024-03-23T14:53:17;13.20;49.60
15705;DHT22;7952;48.396;12.806;2024-03-23T14:56:19;13.10;49.50
15705;DHT22;7952;48.396;12.806;2024-03-23T14:58:45;13.00;49.50
15705;DHT22;7952;48.396;12.806;2024-03-23T15:01:11;12.90;50.10
15705;DHT22;7952;48.396;12.806;2024-03-23T15:03:38;12.80;49.40
15705;DHT22;7952;48.396;12.806;2024-03-23T15:06:08;12.70;49.20
15705;DHT22;7952;48.396;12.806;2024-03-23T15:08:37;12.50;49.00
15705;DHT22;7952;48.396;12.806;2024-03-23T15:11:03;12.30;49.00
15705;DHT22;7952;48.396;12.806;2024-03-23T15:13:34;12.10;49.20
15705;DHT22;7952;48.396;12.806;2024-03-23T15:16:00;11.90;49.30
15705;DHT22;7952;48.396;12.806;2024-03-23T15:18:29;11.60;49.30
15705;DHT22;7952;48.396;12.806;2024-03-23T15:20:59;11.50;49.50
15705;DHT22;7952;48.396;12.806;2024-03-23T15:26:49;11.20;49.80
15705;DHT22;7952;48.396;12.806;2024-03-23T15:30:04;11.10;50.00
15705;DHT22;7952;48.396;12.806;2024-03-23T15:32:28;11.00;50.00
15705;DHT22;7952;48.396;12.806;2024-03-23T15:34:57;10.90;50.00
15705;DHT22;7952;48.396;12.806;2024-03-23T15:37:23;10.90;50.10
15705;DHT22;7952;48.396;12.806;2024-03-23T15:39:52;10.80;50.70
15705;DHT22;7952;48.396;12.806;2024-03-23T15:42:20;10.80;50.20
15705;DHT22;7952;48.396;12.806;2024-03-23T15:44:47;10.70;50.20
15705;DHT22;7952;48.396;12.806;2024-03-23T15:47:13;10.60;50.20
15705;DHT22;7952;48.396;12.806;2024-03-23T15:49:42;10.60;50.30
15705;DHT22;7952;48.396;12.806;2024-03-23T15:52:08;10.60;50.30
15705;DHT22;7952;48.396;12.806;2024-03-23T15:54:34;10.60;50.30
15705;DHT22;7952;48.396;12.806;2024-03-23T15:56:59;10.50;50.20
15705;DHT22;7952;48.396;12.806;2024-03-23T15:59:25;10.50;50.30
15705;DHT22;7952;48.396;12.806;2024-03-23T16:01:54;10.50;50.30
15705;DHT22;7952;48.396;12.806;2024-03-23T16:04:20;10.50;50.30
15705;DHT22;7952;48.396;12.806;2024-03-23T16:06:46;10.50;50.30
15705;DHT22;7952;48.396;12.806;2024-03-23T16:09:12;10.40;50.30
15705;DHT22;7952;48.396;12.806;2024-03-23T16:11:39;10.40;50.30
15705;DHT22;7952;48.396;12.806;2024-03-23T16:14:06;10.40;50.30
15705;DHT22;7952;48.396;12.806;2024-03-23T16:16:31;10.40;50.30
15705;DHT22;7952;48.396;12.806;2024-03-23T16:18:57;10.40;50.30
15705;DHT22;7952;48.396;12.806;2024-03-23T16:21:23;10.40;50.30
15705;DHT22;7952;48.396;12.806;2024-03-23T16:23:48;10.40;50.30
15705;DHT22;7952;48.396;12.806;2024-03-23T16:26:14;10.40;50.30
15705;DHT22;7952;48.396;12.806;2024-03-23T16:28:42;10.30;50.20
15705;DHT22;7952;48.396;12.806;2024-03-23T16:31:09;10.30;50.20
15705;DHT22;7952;48.396;12.806;2024-03-23T16:33:36;10.40;50.30
15705;DHT22;7952;48.396;12.806;2024-03-23T16:38:35;10.30;50.20
15705;DHT22;7952;48.396;12.806;2024-03-23T16:41:04;10.30;50.20
15705;DHT22;7952;48.396;12.806;2024-03-23T16:43:36;10.30;50.20
15705;DHT22;7952;48.396;12.806;2024-03-23T16:46:03;10.20;50.20
15705;DHT22;7952;48.396;12.806;2024-03-23T16:48:30;10.20;50.10
15705;DHT22;7952;48.396;12.806;2024-03-23T16:50:57;10.20;50.20
15705;DHT22;7952;48.396;12.806;2024-03-23T16:53:23;10.20;50.20
15705;DHT22;7952;48.396;12.806;2024-03-23T16:55:58;10.20;50.20
15705;DHT22;7952;48.396;12.806;2024-03-23T16:58:25;10.20;50.20
15705;DHT22;7952;48.396;12.806;2024-03-23T17:00:51;10.20;50.20
15705;DHT22;7952;48.396;12.806;2024-03-23T17:03:19;10.10;50.20
15705;DHT22;7952;48.396;12.806;2024-03-23T17:05:46;10.10;50.20
15705;DHT22;7952;48.396;12.806;2024-03-23T17:08:12;10.10;50.20
15705;DHT22;7952;48.396;12.806;2024-03-23T17:10:39;10.10;50.20
15705;DHT22;7952;48.396;12.806;2024-03-23T17:13:05;10.10;50.20
15705;DHT22;7952;48.396;12.806;2024-03-23T17:15:31;10.00;50.20
15705;DHT22;7952;48.396;12.806;2024-03-23T17:17:57;10.00;50.20
15705;DHT22;7952;48.396;12.806;2024-03-23T17:20:23;10.00;50.20
15705;DHT22;7952;48.396;12.806;2024-03-23T17:22:55;10.00;50.20
15705;DHT22;7952;48.396;12.806;2024-03-23T17:25:22;10.00;50.20
15705;DHT22;7952;48.396;12.806;2024-03-23T17:28:04;9.90;51.10
15705;DHT22;7952;48.396;12.806;2024-03-23T17:30:34;9.90;51.10
15705;DHT22;7952;48.396;12.806;2024-03-23T17:32:59;9.90;51.10
15705;DHT22;7952;48.396;12.806;2024-03-23T17:36:13;9.90;51.20
15705;DHT22;7952;48.396;12.806;2024-03-23T17:38:38;9.80;51.10
15705;DHT22;7952;48.396;12.806;2024-03-23T17:41:04;9.80;51.10
15705;DHT22;7952;48.396;12.806;2024-03-23T17:43:30;9.80;51.20
15705;DHT22;7952;48.396;12.806;2024-03-23T17:45:57;9.70;51.10
15705;DHT22;7952;48.396;12.806;2024-03-23T17:48:23;9.70;51.10
15705;DHT22;7952;48.396;12.806;2024-03-23T17:50:49;9.70;51.20
15705;DHT22;7952;48.396;12.806;2024-03-23T17:53:25;9.70;51.20
15705;DHT22;7952;48.396;12.806;2024-03-23T17:55:50;9.60;51.10
15705;DHT22;7952;48.396;12.806;2024-03-23T17:58:16;9.60;51.10
15705;DHT22;7952;48.396;12.806;2024-03-23T18:00:42;9.60;51.20
15705;DHT22;7952;48.396;12.806;2024-03-23T18:03:07;9.50;51.20
15705;DHT22;7952;48.396;12.806;2024-03-23T18:05:34;9.50;51.30
15705;DHT22;7952;48.396;12.806;2024-03-23T18:07:59;9.50;51.30
15705;DHT22;7952;48.396;12.806;2024-03-23T18:10:25;9.40;51.30
15705;DHT22;7952;48.396;12.806;2024-03-23T18:12:51;9.50;51.40
15705;DHT22;7952;48.396;12.806;2024-03-23T18:15:17;9.40;51.40
15705;DHT22;7952;48.396;12.806;2024-03-23T18:17:42;9.40;51.40
15705;DHT22;7952;48.396;12.806;2024-03-23T18:20:08;9.40;51.30
15705;DHT22;7952;48.396;12.806;2024-03-23T18:22:35;9.30;51.10
15705;DHT22;7952;48.396;12.806;2024-03-23T18:25:01;9.20;51.00
15705;DHT22;7952;48.396;12.806;2024-03-23T18:27:26;9.10;51.60
15705;DHT22;7952;48.396;12.806;2024-03-23T18:29:52;9.00;51.10
15705;DHT22;7952;48.396;12.806;2024-03-23T18:32:18;8.90;51.20
15705;DHT22;7952;48.396;12.806;2024-03-23T18:34:44;8.80;51.20
15705;DHT22;7952;48.396;12.806;2024-03-23T18:37:09;8.70;51.30
15705;DHT22;7952;48.396;12.806;2024-03-23T18:39:35;8.70;51.40
15705;DHT22;7952;48.396;12.806;2024-03-23T18:42:01;8.60;51.30
15705;DHT22;7952;48.396;12.806;2024-03-23T18:44:27;8.60;51.40
15705;DHT22;7952;48.396;12.806;2024-03-23T18:46:52;8.50;51.40
15705;DHT22;7952;48.396;12.806;2024-03-23T18:49:18;8.40;51.40
15705;DHT22;7952;48.396;12.806;2024-03-23T18:51:44;8.40;51.50
15705;DHT22;7952;48.396;12.806;2024-03-23T18:54:10;8.30;51.50
15705;DHT22;7952;48.396;12.806;2024-03-23T18:56:36;8.20;51.50
15705;DHT22;7952;48.396;12.806;2024-03-23T18:59:02;8.10;51.50
15705;DHT22;7952;48.396;12.806;2024-03-23T19:01:27;8.10;51.60
15705;DHT22;7952;48.396;12.806;2024-03-23T19:03:56;8.00;51.60
15705;DHT22;7952;48.396;12.806;2024-03-23T19:06:46;8.00;51.60
15705;DHT22;7952;48.396;12.806;2024-03-23T19:09:12;7.90;51.60
15705;DHT22;7952;48.396;12.806;2024-03-23T19:11:38;7.90;51.70
15705;DHT22;7952;48.396;12.806;2024-03-23T19:14:04;7.90;51.70
15705;DHT22;7952;48.396;12.806;2024-03-23T19:16:29;7.80;51.70
15705;DHT22;7952;48.396;12.806;2024-03-23T19:18:56;7.80;51.70
15705;DHT22;7952;48.396;12.806;2024-03-23T19:21:21;7.70;51.70
15705;DHT22;7952;48.396;12.806;2024-03-23T19:23:47;7.80;51.70
15705;DHT22;7952;48.396;12.806;2024-03-23T19:26:13;7.70;51.70
15705;DHT22;7952;48.396;12.806;2024-03-23T19:28:39;7.70;51.70
15705;DHT22;7952;48.396;12.806;2024-03-23T19:31:04;7.70;51.70
15705;DHT22;7952;48.396;12.806;2024-03-23T19:33:32;7.70;51.70
15705;DHT22;7952;48.396;12.806;2024-03-23T19:35:59;7.60;51.70
15705;DHT22;7952;48.396;12.806;2024-03-23T19:38:24;7.60;51.70
15705;DHT22;7952;48.396;12.806;2024-03-23T19:40:55;7.60;51.70
15705;DHT22;7952;48.396;12.806;2024-03-23T19:43:21;7.60;51.70
15705;DHT22;7952;48.396;12.806;2024-03-23T19:45:47;7.60;51.70
15705;DHT22;7952;48.396;12.806;2024-03-23T19:48:13;7.60;51.70
15705;DHT22;7952;48.396;12.806;2024-03-23T19:50:38;7.60;51.70
15705;DHT22;7952;48.396;12.806;2024-03-23T19:53:04;7.60;51.70
15705;DHT22;7952;48.396;12.806;2024-03-23T19:55:30;7.50;51.60
15705;DHT22;7952;48.396;12.806;2024-03-23T19:57:57;7.60;51.70
15705;DHT22;7952;48.396;12.806;2024-03-23T20:00:23;7.50;51.60
15705;DHT22;7952;48.396;12.806;2024-03-23T20:02:50;7.50;51.60
15705;DHT22;7952;48.396;12.806;2024-03-23T20:05:16;7.50;51.60
15705;DHT22;7952;48.396;12.806;2024-03-23T20:07:41;7.50;51.70
15705;DHT22;7952;48.396;12.806;2024-03-23T20:10:08;7.50;51.60
15705;DHT22;7952;48.396;12.806;2024-03-23T20:12:36;7.50;51.60
15705;DHT22;7952;48.396;12.806;2024-03-23T20:15:02;7.50;51.60
15705;DHT22;7952;48.396;12.806;2024-03-23T20:17:27;7.60;51.70
15705;DHT22;7952;48.396;12.806;2024-03-23T20:19:53;7.60;51.70
15705;DHT22;7952;48.396;12.806;2024-03-23T20:22:19;7.60;51.70
15705;DHT22;7952;48.396;12.806;2024-03-23T20:24:45;7.60;51.60
15705;DHT22;7952;48.396;12.806;2024-03-23T20:27:10;7.60;51.60
15705;DHT22;7952;48.396;12.806;2024-03-23T20:29:36;7.60;51.60
15705;DHT22;7952;48.396;12.806;2024-03-23T20:32:02;7.70;51.60
15705;DHT22;7952;48.396;12.806;2024-03-23T20:34:28;7.70;51.60
15705;DHT22;7952;48.396;12.806;2024-03-23T20:36:54;7.60;51.50
15705;DHT22;7952;48.396;12.806;2024-03-23T20:39:22;7.60;51.50
15705;DHT22;7952;48.396;12.806;2024-03-23T20:41:48;7.60;51.50
15705;DHT22;7952;48.396;12.806;2024-03-23T20:44:14;7.60;51.50
15705;DHT22;7952;48.396;12.806;2024-03-23T20:46:40;7.60;51.50
15705;DHT22;7952;48.396;12.806;2024-03-23T20:49:05;7.50;51.50
15705;DHT22;7952;48.396;12.806;2024-03-23T20:51:32;7.50;51.50
15705;DHT22;7952;48.396;12.806;2024-03-23T20:53:58;7.50;51.50
15705;DHT22;7952;48.396;12.806;2024-03-23T20:56:24;7.50;51.50
15705;DHT22;7952;48.396;12.806;2024-03-23T20:58:49;7.50;51.60
15705;DHT22;7952;48.396;12.806;2024-03-23T21:01:15;7.50;51.60
15705;DHT22;7952;48.396;12.806;2024-03-23T21:03:41;7.50;51.60
15705;DHT22;7952;48.396;12.806;2024-03-23T21:06:07;7.50;51.60
15705;DHT22;7952;48.396;12.806;2024-03-23T21:08:33;7.50;51.60
15705;DHT22;7952;48.396;12.806;2024-03-23T21:10:59;7.50;51.60